Time;durP1;ratioP1;P1;durP2;ratioP2;P2;SDS_P1;SDS_P2;PMS_P1;PMS_P2;Temp;Humidity;BMP_temperature;BMP_pressure;BME280_temperature;BME280_humidity;BME280_pressure;Samples;Min_cycle;Max_cycle;Signal;HPM_P1;HPM_P2
2022/11/08 00:02:28;;;;;;;;;12.00;10.33;;;;;13.13;72.08;100139.00;5077356;28;45374;-59
2022/11/08 00:04:54;;;;;;;;;10.33;10.33;;;;;13.11;71.74;100134.75;5076694;28;45489;-59
2022/11/08 00:15:37;;;;;;;;;7.00;7.00;;;;;13.05;71.70;100120.94;5077225;28;45429;-56
2022/11/08 00:18:04;;;;;;;;;13.00;10.33;;;;;13.04;71.84;100110.47;5057912;28;45575;-56
2022/11/08 00:20:30;;;;;;;;;9.67;9.67;;;;;13.05;71.46;100107.72;5076694;28;45516;-55
2022/11/08 00:22:55;;;;;;;;;8.00;8.00;;;;;13.07;71.06;100102.38;5076694;28;45540;-59
2022/11/08 00:25:20;;;;;;;;;7.33;6.67;;;;;13.04;70.95;100094.63;5076336;28;45492;-59
2022/11/08 00:27:46;;;;;;;;;8.00;8.00;;;;;13.03;71.43;100096.41;5076670;28;45454;-58
2022/11/08 00:30:11;;;;;;;;;11.00;8.67;;;;;13.02;71.24;100081.50;5076775;28;45438;-57
2022/11/08 00:32:36;;;;;;;;;8.00;8.00;;;;;13.02;71.11;100085.94;5076465;28;45710;-57
2022/11/08 00:35:02;;;;;;;;;6.33;6.33;;;;;13.01;70.88;100084.25;5075806;28;61783;-60
2022/11/08 00:37:27;;;;;;;;;7.00;7.00;;;;;12.99;70.76;100076.38;5076375;28;45425;-60
2022/11/08 00:39:52;;;;;;;;;8.67;8.67;;;;;12.99;70.57;100068.47;5076531;28;45450;-57
2022/11/08 00:42:18;;;;;;;;;7.33;6.33;;;;;12.99;70.68;100054.44;5076524;28;45442;-56
2022/11/08 00:44:43;;;;;;;;;6.33;6.33;;;;;12.96;70.38;100050.16;5075846;28;45406;-57
2022/11/08 00:47:08;;;;;;;;;6.67;6.67;;;;;12.96;70.17;100039.59;5076343;28;45366;-57
2022/11/08 00:49:34;;;;;;;;;5.00;5.00;;;;;12.96;70.22;100039.59;5076271;28;45526;-55
2022/11/08 00:51:59;;;;;;;;;10.00;8.67;;;;;12.95;70.35;100031.75;5076303;28;45477;-58
2022/11/08 00:54:25;;;;;;;;;9.33;8.33;;;;;12.94;70.23;100030.06;5075857;28;46048;-58
2022/11/08 00:56:50;;;;;;;;;8.00;7.00;;;;;12.93;70.34;100028.38;5075471;28;45442;-60
2022/11/08 00:59:17;;;;;;;;;6.33;6.00;;;;;12.91;69.97;100020.53;5076099;28;45387;-58
2022/11/08 01:01:43;;;;;;;;;5.33;5.33;;;;;12.89;69.58;100024.19;5076356;28;45643;-57
2022/11/08 01:04:11;;;;;;;;;7.00;7.00;;;;;12.88;69.95;100025.13;5075873;28;45537;-56
2022/11/08 01:06:37;;;;;;;;;5.67;5.67;;;;;12.85;69.90;100025.28;5075794;28;45410;-60
2022/11/08 01:09:03;;;;;;;;;6.00;6.00;;;;;12.85;69.63;100026.13;5076254;28;45385;-58
2022/11/08 01:11:29;;;;;;;;;7.33;6.00;;;;;12.83;69.55;100014.81;5075967;28;45580;-59
2022/11/08 01:13:58;;;;;;;;;8.00;6.67;;;;;12.80;69.34;100007.91;5075614;27;45505;-58
2022/11/08 01:16:27;;;;;;;;;5.67;5.67;;;;;12.80;69.13;100018.47;5076180;28;45410;-56
2022/11/08 01:18:54;;;;;;;;;3.00;3.00;;;;;12.77;69.28;100020.44;5076020;28;45448;-59
2022/11/08 01:21:20;;;;;;;;;6.33;6.33;;;;;12.74;69.08;100016.16;5075784;28;45539;-57
2022/11/08 01:23:46;;;;;;;;;6.67;5.67;;;;;12.74;69.26;100020.59;5075588;28;45360;-56
2022/11/08 01:26:13;;;;;;;;;6.33;6.33;;;;;12.73;69.68;100008.31;5075906;28;45413;-56
2022/11/08 01:28:39;;;;;;;;;6.00;6.00;;;;;12.70;69.23;100011.13;5067632;28;45600;-58
2022/11/08 01:31:15;;;;;;;;;6.67;6.67;;;;;12.63;69.75;100007.97;5075856;28;45440;-58
2022/11/08 01:33:41;;;;;;;;;6.00;6.00;;;;;12.62;69.44;100006.25;5056766;28;45648;-57
2022/11/08 01:36:09;;;;;;;;;7.33;6.33;;;;;12.61;69.52;100015.13;5075394;28;45512;-60
2022/11/08 01:38:34;;;;;;;;;5.67;5.67;;;;;12.62;69.28;100019.44;5075725;28;45405;-57
2022/11/08 01:41:00;;;;;;;;;5.00;5.00;;;;;12.62;69.49;100008.88;5075483;28;45473;-56
2022/11/08 01:43:28;;;;;;;;;8.00;6.67;;;;;12.66;70.27;100012.25;5056695;28;46927;-58
2022/11/08 01:46:09;;;;;;;;;8.67;7.67;;;;;12.66;69.92;100013.09;5075220;28;45438;-57
2022/11/08 01:48:38;;;;;;;;;5.33;4.00;;;;;12.67;69.30;100006.84;5075470;28;45351;-60
2022/11/08 01:51:08;;;;;;;;;7.33;7.00;;;;;12.66;69.78;100001.69;5075303;28;45550;-59
2022/11/08 01:53:34;;;;;;;;;9.33;9.33;;;;;12.60;69.67;99990.53;5075161;28;45445;-58
2022/11/08 01:56:00;;;;;;;;;7.00;6.67;;;;;12.60;69.31;99987.03;5075160;28;45421;-56
2022/11/08 01:58:30;;;;;;;;;5.33;5.33;;;;;12.57;69.60;99989.81;5075406;28;45385;-60
2022/11/08 02:00:58;;;;;;;;;6.67;6.67;;;;;12.57;69.43;99990.69;5075625;28;45430;-56
2022/11/08 02:03:24;;;;;;;;;7.67;7.67;;;;;12.58;69.78;99988.91;5074874;28;46203;-59
2022/11/08 02:05:49;;;;;;;;;5.33;5.33;;;;;12.58;69.70;99984.47;5075084;28;45359;-57
2022/11/08 02:08:20;;;;;;;;;8.33;7.00;;;;;12.58;69.28;99983.63;5056947;28;45449;-58
2022/11/08 02:10:50;;;;;;;;;7.00;7.00;;;;;12.56;69.13;99985.47;5078986;28;45498;-58
2022/11/08 02:13:22;;;;;;;;;5.33;5.33;;;;;12.53;69.82;99967.19;5078356;27;47657;-58
2022/11/08 02:15:47;;;;;;;;;6.00;6.00;;;;;12.55;69.12;99973.25;5078969;28;45384;-56
2022/11/08 02:18:14;;;;;;;;;9.33;7.00;;;;;12.58;69.42;99962.53;5078931;28;45415;-56
2022/11/08 02:20:54;;;;;;;;;5.67;5.33;;;;;12.55;68.83;99963.53;5078859;28;45568;-57
2022/11/08 02:23:44;;;;;;;;;7.67;7.67;;;;;12.54;69.30;99953.06;5078215;28;46210;-57
2022/11/08 02:26:10;;;;;;;;;7.00;7.00;;;;;12.44;69.06;99934.25;5078420;28;45447;-58
2022/11/08 02:28:44;;;;;;;;;5.00;5.00;;;;;12.47;69.19;99931.44;5078449;28;45443;-58
2022/11/08 02:31:10;;;;;;;;;4.00;4.00;;;;;12.44;69.20;99931.63;5078570;28;45383;-58
2022/11/08 02:33:36;;;;;;;;;7.33;6.33;;;;;12.42;68.90;99932.63;5078144;28;46323;-57
2022/11/08 02:36:04;;;;;;;;;7.00;7.00;;;;;12.38;68.39;99921.38;5078215;28;45538;-58
2022/11/08 02:38:30;;;;;;;;;6.00;6.00;;;;;12.36;68.66;99908.28;5078316;28;45426;-58
2022/11/08 02:40:56;;;;;;;;;6.00;5.33;;;;;12.34;68.41;99911.94;5078403;28;45613;-56
2022/11/08 02:43:23;;;;;;;;;6.33;5.00;;;;;12.32;68.56;99909.38;5078228;28;46218;-57
2022/11/08 02:45:50;;;;;;;;;6.00;6.00;;;;;12.36;68.84;99921.47;5077894;28;45421;-57
2022/11/08 02:48:17;;;;;;;;;7.00;6.00;;;;;12.37;68.07;99917.03;5078336;28;45368;-55
2022/11/08 02:50:42;;;;;;;;;5.00;5.00;;;;;12.36;68.42;99915.34;5078145;28;45506;-56
2022/11/08 02:53:08;;;;;;;;;6.33;6.33;;;;;12.34;67.88;99901.41;5077881;28;46221;-59
2022/11/08 02:55:34;;;;;;;;;4.00;4.00;;;;;12.34;67.27;99898.75;5059437;28;45526;-59
2022/11/08 02:58:00;;;;;;;;;5.67;5.67;;;;;12.34;67.28;99886.41;5077816;28;45491;-56
2022/11/08 03:00:26;;;;;;;;;5.00;4.33;;;;;12.35;67.46;99892.53;5078140;28;45611;-59
2022/11/08 03:02:52;;;;;;;;;6.00;4.67;;;;;12.34;66.76;99881.16;5077847;28;45551;-59
2022/11/08 03:05:18;;;;;;;;;5.00;5.00;;;;;12.34;67.00;99883.78;5077696;28;45477;-56
2022/11/08 03:07:43;;;;;;;;;5.67;5.67;;;;;12.37;66.71;99891.53;5077840;28;45453;-59
2022/11/08 03:10:10;;;;;;;;;7.00;6.00;;;;;12.36;66.91;99896.91;5078127;28;45568;-60
2022/11/08 03:12:36;;;;;;;;;5.00;5.00;;;;;12.39;67.02;99909.91;5077679;27;45971;-58
2022/11/08 03:15:01;;;;;;;;;5.00;5.00;;;;;12.38;66.18;99895.00;5077409;28;45430;-60
2022/11/08 03:17:26;;;;;;;;;3.67;3.67;;;;;12.38;66.29;99893.25;5077787;28;45335;-57
2022/11/08 03:19:52;;;;;;;;;6.00;5.00;;;;;12.42;66.49;99891.28;5077009;28;45403;-58
2022/11/08 03:22:18;;;;;;;;;4.67;3.67;;;;;12.47;66.29;99893.69;5058916;28;46214;-58
2022/11/08 03:24:43;;;;;;;;;6.00;6.00;;;;;12.47;66.20;99902.44;5077324;28;45549;-56
2022/11/08 03:27:08;;;;;;;;;4.67;4.67;;;;;12.46;66.12;99908.63;5077729;28;45501;-58
2022/11/08 03:29:34;;;;;;;;;6.00;4.67;;;;;12.47;65.61;99901.59;5077603;28;47439;-55
2022/11/08 03:31:59;;;;;;;;;4.33;4.00;;;;;12.45;65.92;99901.66;5077173;28;48723;-57
2022/11/08 03:34:24;;;;;;;;;6.00;5.00;;;;;12.44;65.78;99897.34;5076999;28;51626;-59
2022/11/08 03:36:49;;;;;;;;;5.00;5.00;;;;;12.43;65.27;99895.59;5059233;28;45435;-55
2022/11/08 03:39:15;;;;;;;;;4.00;4.00;;;;;12.44;65.53;99899.09;5077065;28;49263;-59
2022/11/08 03:41:40;;;;;;;;;3.67;3.67;;;;;12.41;65.92;99894.00;5077011;28;58002;-56
2022/11/08 03:44:05;;;;;;;;;5.00;4.00;;;;;12.42;65.41;99887.81;5076744;28;58235;-58
2022/11/08 03:46:30;;;;;;;;;5.00;5.00;;;;;12.40;65.54;99887.03;5076883;28;47260;-57
2022/11/08 03:48:56;;;;;;;;;6.33;5.33;;;;;12.39;66.09;99888.81;5077171;28;45431;-59
2022/11/08 03:51:21;;;;;;;;;4.33;4.33;;;;;12.37;65.78;99888.03;5077065;28;45450;-60
2022/11/08 03:53:46;;;;;;;;;3.67;3.67;;;;;12.36;65.98;99886.34;5077276;28;45676;-59
2022/11/08 03:56:12;;;;;;;;;4.00;4.00;;;;;12.35;66.30;99882.84;5077267;28;45398;-60
2022/11/08 03:58:37;;;;;;;;;5.67;5.00;;;;;12.35;65.76;99893.38;5076775;28;45471;-57
2022/11/08 04:01:05;;;;;;;;;6.33;5.67;;;;;12.35;65.76;99893.38;5076849;28;45925;-58
2022/11/08 04:03:31;;;;;;;;;5.67;5.67;;;;;12.33;65.18;99891.75;5077300;28;45534;-60
2022/11/08 04:06:00;;;;;;;;;4.00;4.00;;;;;12.29;65.37;99877.91;5076927;28;45393;-57
2022/11/08 04:08:27;;;;;;;;;6.33;4.67;;;;;12.26;65.97;99882.50;5076933;28;45569;-54
2022/11/08 04:15:13;;;;;;;;;5.67;5.67;;;;;12.22;65.72;99881.78;5076842;28;45465;-59
2022/11/08 04:16:26;;;;;;;;;5.00;4.33;;;;;12.24;65.25;99881.72;5077278;28;45445;-58
2022/11/08 04:21:35;;;;;;;;;4.67;4.67;;;;;12.21;65.43;99890.66;5076736;28;45312;-58
2022/11/08 04:24:00;;;;;;;;;5.00;4.67;;;;;12.22;65.33;99889.69;5076628;28;45420;-57
2022/11/08 04:26:25;;;;;;;;;4.00;4.00;;;;;12.23;65.33;99887.94;5076420;28;48751;-57
2022/11/08 04:28:50;;;;;;;;;5.00;5.00;;;;;12.22;65.51;99888.84;5076761;28;45346;-58
2022/11/08 04:31:18;;;;;;;;;4.33;4.33;;;;;12.23;64.67;99895.84;5075340;28;45447;-59
2022/11/08 04:33:43;;;;;;;;;3.00;3.00;;;;;12.22;65.01;99887.06;5076342;28;45518;-59
2022/11/08 04:36:14;;;;;;;;;7.00;4.00;;;;;12.18;64.81;99884.69;5076477;28;45548;-59
2022/11/08 04:38:39;;;;;;;;;4.00;4.00;;;;;12.22;64.62;99881.78;5076673;28;45411;-58
2022/11/08 04:41:11;;;;;;;;;6.00;6.00;;;;;12.20;64.87;99885.44;5075965;28;45434;-56
2022/11/08 04:43:36;;;;;;;;;8.00;7.00;;;;;12.21;64.97;99885.38;5057797;28;45457;-56
2022/11/08 04:46:05;;;;;;;;;3.00;3.00;;;;;12.19;64.52;99879.31;5076383;28;45427;-60
2022/11/08 04:48:30;;;;;;;;;4.00;4.00;;;;;12.21;64.80;99887.16;5076554;28;45319;-58
2022/11/08 04:51:01;;;;;;;;;5.00;5.00;;;;;12.18;65.45;99888.19;5075966;28;46385;-59
2022/11/08 04:53:26;;;;;;;;;4.00;4.00;;;;;12.18;64.42;99882.06;5076475;28;45466;-60
2022/11/08 04:55:58;;;;;;;;;6.00;6.00;;;;;12.14;64.99;99890.13;5076000;28;45401;-58
2022/11/08 04:58:23;;;;;;;;;3.00;3.00;;;;;12.13;65.42;99885.78;5076454;28;45716;-60
2022/11/08 05:00:49;;;;;;;;;4.33;4.33;;;;;12.12;64.61;99889.38;5075675;28;51542;-58
2022/11/08 05:03:14;;;;;;;;;5.00;3.00;;;;;12.08;65.20;99882.53;5075753;28;52580;-60
2022/11/08 05:05:39;;;;;;;;;4.33;4.33;;;;;12.03;64.55;99884.56;5076323;28;45347;-60
2022/11/08 05:08:05;;;;;;;;;5.00;4.00;;;;;12.00;64.96;99874.19;5076040;28;45540;-56
2022/11/08 05:10:30;;;;;;;;;5.33;5.33;;;;;12.00;65.63;99860.16;5075950;28;45958;-58
2022/11/08 05:12:56;;;;;;;;;5.00;4.00;;;;;12.00;64.52;99868.91;5075734;28;45500;-58
2022/11/08 05:15:22;;;;;;;;;6.00;6.00;;;;;11.99;65.12;99882.19;5076701;28;45501;-58
2022/11/08 05:17:47;;;;;;;;;5.33;5.00;;;;;11.99;65.42;99869.00;5075732;28;45521;-59
2022/11/08 05:25:45;;;;;;;;;5.00;5.00;;;;;12.01;65.06;99875.91;5075791;28;45394;-59
2022/11/08 05:28:11;;;;;;;;;4.00;4.00;;;;;12.01;64.71;99881.19;5075481;28;45363;-59
2022/11/08 05:30:37;;;;;;;;;5.67;5.00;;;;;12.01;64.87;99875.91;5057149;28;45411;-57
2022/11/08 05:33:02;;;;;;;;;6.67;6.67;;;;;11.98;65.50;99878.69;5075299;28;45553;-60
2022/11/08 05:35:27;;;;;;;;;6.00;5.00;;;;;12.00;64.73;99886.50;5075401;28;45389;-59
2022/11/08 05:37:53;;;;;;;;;7.00;6.00;;;;;12.00;65.36;99883.88;5075657;28;45435;-56
2022/11/08 05:40:18;;;;;;;;;4.00;4.00;;;;;11.98;65.50;99877.81;5074523;28;52861;-57
2022/11/08 05:42:44;;;;;;;;;4.00;4.00;;;;;11.96;64.73;99883.19;5075092;28;45720;-57
2022/11/08 05:45:09;;;;;;;;;5.00;5.00;;;;;11.91;64.39;99874.69;5075636;28;45461;-58
2022/11/08 05:47:35;;;;;;;;;6.00;5.00;;;;;11.89;65.58;99869.47;5075154;28;45456;-58
2022/11/08 05:50:00;;;;;;;;;6.33;3.00;;;;;11.88;65.42;99866.94;5075365;28;46279;-60
2022/11/08 05:52:25;;;;;;;;;4.00;4.00;;;;;11.89;64.57;99869.47;5075264;28;45462;-57
2022/11/08 05:54:52;;;;;;;;;5.00;5.00;;;;;11.85;64.60;99873.19;5074983;28;53028;-57
2022/11/08 05:57:17;;;;;;;;;5.00;4.67;;;;;11.88;65.23;99878.31;5075487;28;45449;-57
2022/11/08 05:59:42;;;;;;;;;7.67;5.00;;;;;11.87;65.13;99873.97;5075027;28;46301;-57
2022/11/08 06:02:08;;;;;;;;;6.00;6.00;;;;;11.86;64.14;99866.16;5075121;28;45450;-57
2022/11/08 06:04:33;;;;;;;;;6.67;5.00;;;;;11.92;65.05;99879.00;5075031;28;45511;-59
2022/11/08 06:06:58;;;;;;;;;5.00;5.00;;;;;11.89;64.96;99874.75;5075088;28;45875;-59
2022/11/08 06:09:23;;;;;;;;;7.00;4.67;;;;;11.88;64.70;99865.16;5074827;28;45508;-57
2022/11/08 06:11:49;;;;;;;;;5.00;5.00;;;;;11.85;65.03;99862.66;5074770;28;51446;-57
2022/11/08 06:14:14;;;;;;;;;3.67;3.67;;;;;11.85;65.00;99867.91;5075122;28;45303;-60
2022/11/08 06:16:39;;;;;;;;;8.00;4.33;;;;;11.86;64.43;99866.16;5075359;28;45566;-59
2022/11/08 06:19:05;;;;;;;;;4.67;4.67;;;;;11.85;64.83;99880.25;5074932;28;46067;-59
2022/11/08 06:21:30;;;;;;;;;4.67;4.67;;;;;11.84;64.35;99874.09;5074664;28;45375;-54
2022/11/08 06:23:55;;;;;;;;;4.00;4.00;;;;;11.85;65.19;99872.34;5075099;28;45438;-55
2022/11/08 06:26:22;;;;;;;;;3.00;3.00;;;;;11.85;64.43;99870.56;5074781;28;46999;-55
2022/11/08 06:28:48;;;;;;;;;3.33;3.33;;;;;11.83;64.72;99861.03;5074688;28;45413;-56
2022/11/08 06:31:13;;;;;;;;;4.67;4.00;;;;;11.81;65.02;99865.50;5074624;28;45520;-56
2022/11/08 06:33:38;;;;;;;;;5.00;5.00;;;;;11.82;64.51;99870.72;5056365;28;45371;-59
2022/11/08 06:36:05;;;;;;;;;4.33;4.33;;;;;11.81;64.52;99868.16;5074863;28;45445;-60
2022/11/08 06:38:31;;;;;;;;;4.67;4.67;;;;;11.77;64.30;99862.19;5074814;28;45542;-57
2022/11/08 06:41:00;;;;;;;;;4.67;4.67;;;;;11.80;64.83;99885.75;5074344;28;45588;-57
2022/11/08 06:43:26;;;;;;;;;6.67;5.67;;;;;11.81;65.01;99895.34;5074924;28;45470;-56
2022/11/08 06:45:51;;;;;;;;;5.00;5.00;;;;;11.81;64.34;99897.97;5056186;28;45661;-59
2022/11/08 06:48:16;;;;;;;;;6.33;6.00;;;;;11.83;64.05;99911.09;5074521;28;46108;-57
2022/11/08 06:50:43;;;;;;;;;4.00;3.00;;;;;11.82;64.89;99917.25;5074561;28;45403;-58
2022/11/08 06:53:11;;;;;;;;;5.00;5.00;;;;;11.83;64.67;99914.56;5074661;28;45523;-57
2022/11/08 06:55:37;;;;;;;;;5.00;5.00;;;;;11.83;64.51;99893.47;5076694;28;45452;-59
2022/11/08 06:58:03;;;;;;;;;5.00;5.00;;;;;11.83;65.03;99906.66;5077670;28;47030;-59
2022/11/08 07:00:29;;;;;;;;;5.00;5.00;;;;;11.82;64.77;99894.44;5077996;28;45485;-57
2022/11/08 07:02:56;;;;;;;;;5.67;3.33;;;;;11.78;64.89;99903.41;5077835;28;45383;-58
2022/11/08 07:05:22;;;;;;;;;6.00;6.00;;;;;11.81;64.19;99905.03;5059526;28;45355;-55
2022/11/08 07:07:50;;;;;;;;;4.33;4.00;;;;;11.80;64.64;99896.28;5077624;28;45403;-55
2022/11/08 07:10:18;;;;;;;;;4.33;4.33;;;;;11.79;64.30;99905.09;5077805;28;45458;-59
2022/11/08 07:12:43;;;;;;;;;3.33;3.00;;;;;11.79;65.08;99913.00;5077642;27;45537;-55
2022/11/08 07:15:09;;;;;;;;;5.00;5.00;;;;;11.77;65.43;99904.34;5078264;28;45518;-56
2022/11/08 07:17:34;;;;;;;;;3.67;3.67;;;;;11.80;64.07;99909.47;5077176;28;47333;-59
2022/11/08 07:20:00;;;;;;;;;6.00;6.00;;;;;11.82;64.72;99910.25;5077549;28;45523;-56
2022/11/08 07:22:25;;;;;;;;;7.33;7.33;;;;;11.84;64.65;99915.41;5077349;28;46137;-55
2022/11/08 07:24:50;;;;;;;;;7.00;7.00;;;;;11.84;64.23;99918.03;5076682;28;55712;-58
2022/11/08 07:27:16;;;;;;;;;9.67;9.67;;;;;11.87;64.13;99926.66;5077164;28;46398;-57
2022/11/08 07:29:41;;;;;;;;;5.00;5.00;;;;;11.88;64.98;99901.19;5077256;28;45375;-62
2022/11/08 07:32:06;;;;;;;;;7.67;6.67;;;;;11.90;64.05;99904.56;5076083;28;45435;-56
2022/11/08 07:34:32;;;;;;;;;9.00;7.00;;;;;11.92;64.65;99898.28;5077294;28;45639;-56
2022/11/08 07:36:57;;;;;;;;;5.00;5.00;;;;;11.92;64.08;99922.00;5077144;28;46445;-56
2022/11/08 07:39:23;;;;;;;;;5.67;5.67;;;;;11.94;64.92;99917.53;5077004;28;45426;-57
2022/11/08 07:41:48;;;;;;;;;6.00;6.00;;;;;11.94;63.99;99927.22;5077388;28;45454;-56
2022/11/08 07:44:13;;;;;;;;;5.00;5.00;;;;;11.93;64.59;99921.09;5076975;28;45714;-60
2022/11/08 07:46:39;;;;;;;;;5.00;5.00;;;;;11.98;64.90;99928.75;5077019;28;46265;-58
2022/11/08 07:49:04;;;;;;;;;5.67;5.67;;;;;12.04;64.61;99928.44;5076830;28;45883;-60
2022/11/08 07:51:29;;;;;;;;;2.67;1.67;;;;;12.06;64.79;99917.81;5077016;28;45820;-59
2022/11/08 07:53:55;;;;;;;;;4.00;4.00;;;;;12.07;64.65;99919.53;5076444;28;52649;-58
2022/11/08 07:56:20;;;;;;;;;4.00;4.00;;;;;12.07;64.66;99916.91;5076717;28;45854;-57
2022/11/08 07:58:45;;;;;;;;;5.00;5.00;;;;;12.07;64.77;99914.25;5076378;28;52178;-58
2022/11/08 08:01:11;;;;;;;;;5.00;5.00;;;;;12.09;64.60;99910.63;5076612;28;45457;-57
2022/11/08 08:03:36;;;;;;;;;5.33;5.33;;;;;12.09;63.97;99923.78;5076745;28;45596;-58
2022/11/08 08:06:01;;;;;;;;;5.67;5.00;;;;;12.11;64.55;99931.59;5076360;28;46023;-56
2022/11/08 08:08:28;;;;;;;;;4.67;3.67;;;;;12.14;64.13;99923.53;5076754;28;45422;-57
2022/11/08 08:11:00;;;;;;;;;5.67;4.33;;;;;12.19;65.06;99916.22;5076777;28;45514;-56
2022/11/08 08:13:25;;;;;;;;;10.00;6.33;;;;;12.25;64.20;99918.56;5076461;27;45485;-60
2022/11/08 08:15:51;;;;;;;;;4.00;4.00;;;;;12.29;64.42;99913.97;5076875;28;45504;-59
2022/11/08 08:18:19;;;;;;;;;4.67;4.67;;;;;12.31;64.50;99906.84;5058240;28;45479;-58
2022/11/08 08:20:45;;;;;;;;;6.00;5.00;;;;;12.34;64.57;99911.94;5076654;28;45474;-57
2022/11/08 08:23:10;;;;;;;;;7.00;5.33;;;;;12.36;64.29;99907.44;5076365;28;45331;-59
2022/11/08 08:25:35;;;;;;;;;6.00;6.00;;;;;12.37;63.94;99890.69;5076421;28;45488;-60
2022/11/08 08:28:01;;;;;;;;;7.00;5.00;;;;;12.38;64.55;99900.28;5075610;28;45429;-57
2022/11/08 08:30:28;;;;;;;;;7.00;7.00;;;;;12.39;64.98;99896.72;5076539;28;46013;-59
2022/11/08 08:33:01;;;;;;;;;7.00;7.00;;;;;12.39;64.34;99880.91;5058159;28;45554;-56
2022/11/08 08:35:27;;;;;;;;;4.33;4.33;;;;;12.43;64.40;99876.31;5075572;28;46121;-60
2022/11/08 08:37:56;;;;;;;;;6.00;5.67;;;;;12.47;65.02;99877.84;5076134;28;45472;-57
2022/11/08 08:40:22;;;;;;;;;5.00;5.00;;;;;12.51;65.16;99901.31;5076385;28;45409;-63
2022/11/08 08:42:47;;;;;;;;;5.00;5.00;;;;;12.56;64.71;99909.84;5076188;28;53497;-62
2022/11/08 08:45:12;;;;;;;;;6.33;5.33;;;;;12.62;64.52;99908.66;5076210;28;45489;-59
2022/11/08 08:47:38;;;;;;;;;6.33;5.00;;;;;12.64;65.09;99896.22;5075478;28;45410;-59
2022/11/08 08:50:03;;;;;;;;;5.33;5.33;;;;;12.67;65.25;99906.59;5075768;28;45462;-55
2022/11/08 08:52:29;;;;;;;;;5.00;5.00;;;;;12.71;65.01;99912.59;5076267;28;45387;-57
2022/11/08 08:54:54;;;;;;;;;7.67;5.00;;;;;12.74;64.72;99915.91;5075750;28;49240;-59
2022/11/08 08:57:19;;;;;;;;;5.67;4.67;;;;;12.78;65.13;99906.00;5075257;28;60099;-56
2022/11/08 08:59:44;;;;;;;;;3.00;3.00;;;;;12.83;65.10;99919.81;5075755;28;45347;-60
2022/11/08 09:02:10;;;;;;;;;6.00;6.00;;;;;12.89;64.89;99922.09;5075948;28;45423;-55
2022/11/08 09:04:36;;;;;;;;;4.67;4.00;;;;;12.94;64.90;99924.50;5075704;28;46098;-57
2022/11/08 09:07:01;;;;;;;;;5.00;5.00;;;;;12.96;64.49;99918.19;5075884;28;45391;-56
2022/11/08 09:09:26;;;;;;;;;3.33;2.67;;;;;13.03;65.01;99916.91;5075793;28;45370;-52
2022/11/08 09:11:52;;;;;;;;;4.00;4.00;;;;;13.10;64.51;99917.41;5075571;28;47405;-59
2022/11/08 09:14:17;;;;;;;;;4.00;4.00;;;;;13.16;64.68;99919.69;5075222;27;50197;-59
2022/11/08 09:16:42;;;;;;;;;4.00;4.00;;;;;13.21;65.08;99898.31;5075705;28;45490;-59
2022/11/08 09:19:09;;;;;;;;;5.33;3.67;;;;;13.31;64.70;99903.97;5075416;28;45426;-57
2022/11/08 09:21:34;;;;;;;;;7.33;5.00;;;;;13.36;64.63;99908.03;5056876;28;45340;-58
2022/11/08 09:23:59;;;;;;;;;4.00;4.00;;;;;13.43;64.64;99922.59;5075359;28;45840;-53
2022/11/08 09:26:24;;;;;;;;;5.00;5.00;;;;;13.50;64.74;99928.34;5075452;28;45436;-59
2022/11/08 09:28:50;;;;;;;;;3.00;3.00;;;;;13.55;64.89;99925.44;5075259;28;45464;-55
2022/11/08 09:31:15;;;;;;;;;4.00;4.00;;;;;13.57;65.04;99932.34;5075601;28;45667;-57
2022/11/08 09:33:41;;;;;;;;;6.00;4.33;;;;;13.61;64.56;99933.84;5075086;28;46200;-59
2022/11/08 09:36:08;;;;;;;;;4.67;4.67;;;;;13.67;64.49;99932.66;5074824;28;45565;-55
2022/11/08 09:38:33;;;;;;;;;6.33;6.00;;;;;13.73;64.15;99934.06;5075451;28;45397;-58
2022/11/08 09:41:23;;;;;;;;;6.00;6.00;;;;;13.82;64.83;99928.25;5056431;28;45479;-58
2022/11/08 09:44:21;;;;;;;;;4.00;3.00;;;;;13.89;64.18;99919.88;5074846;28;45387;-55
2022/11/08 09:46:54;;;;;;;;;3.67;3.67;;;;;13.96;64.45;99932.72;5075228;28;45492;-56
2022/11/08 09:49:40;;;;;;;;;3.00;3.00;;;;;13.99;64.08;99930.72;5075308;28;45377;-55
2022/11/08 09:52:06;;;;;;;;;5.00;5.00;;;;;14.03;64.48;99916.41;5075105;28;45430;-58
2022/11/08 09:54:40;;;;;;;;;4.00;4.00;;;;;14.09;64.61;99925.75;5074929;28;45940;-57
2022/11/08 09:57:15;;;;;;;;;4.00;4.00;;;;;14.12;64.33;99928.19;5075115;28;45430;-58
2022/11/08 09:59:51;;;;;;;;;8.33;7.33;;;;;14.16;64.30;99916.50;5075199;28;45571;-59
2022/11/08 10:02:19;;;;;;;;;8.00;7.33;;;;;14.22;64.29;99918.78;5056823;28;45606;-56
2022/11/08 10:04:58;;;;;;;;;6.33;6.33;;;;;14.26;64.43;99922.91;5074645;28;45488;-58
2022/11/08 10:07:56;;;;;;;;;4.00;4.00;;;;;14.33;64.50;99918.94;5074885;28;45451;-59
2022/11/08 10:10:57;;;;;;;;;6.33;6.33;;;;;14.35;64.24;99917.06;5074158;28;45400;-58
2022/11/08 10:13:48;;;;;;;;;6.67;5.67;;;;;14.39;64.21;99923.00;5074652;27;45418;-57
2022/11/08 10:16:52;;;;;;;;;4.67;4.00;;;;;14.39;65.14;99920.34;5073541;28;45473;-57
2022/11/08 10:19:39;;;;;;;;;6.00;6.00;;;;;14.43;64.99;99932.47;5069997;28;45510;-57
2022/11/08 10:22:13;;;;;;;;;1.00;1.00;;;;;14.47;64.50;99925.19;5062198;28;45443;-54
2022/11/08 10:24:51;;;;;;;;;4.00;3.00;;;;;14.51;63.88;99926.72;5074640;28;45498;-60
2022/11/08 10:27:29;;;;;;;;;3.33;2.33;;;;;14.57;64.28;99932.47;5074758;28;46266;-58
2022/11/08 10:30:00;;;;;;;;;5.33;5.33;;;;;14.63;64.85;99925.09;5075704;28;45573;-58
2022/11/08 10:32:28;;;;;;;;;6.00;5.33;;;;;14.66;64.63;99933.69;5078416;28;46104;-57
2022/11/08 10:35:00;;;;;;;;;4.00;4.00;;;;;14.71;64.86;99922.81;5077888;28;45605;-59
2022/11/08 10:37:27;;;;;;;;;2.00;2.00;;;;;14.75;65.10;99927.84;5077812;28;46259;-56
2022/11/08 10:39:59;;;;;;;;;4.33;3.67;;;;;14.79;64.78;99924.03;5078152;28;45407;-57
2022/11/08 10:42:44;;;;;;;;;5.33;3.00;;;;;14.82;64.60;99917.69;5078122;28;45575;-57
2022/11/08 10:45:11;;;;;;;;;3.00;3.00;;;;;14.87;65.11;99920.91;5078288;28;45458;-57
2022/11/08 10:47:38;;;;;;;;;4.67;3.33;;;;;14.92;64.88;99917.97;5077872;28;46189;-59
2022/11/08 10:50:16;;;;;;;;;3.33;3.33;;;;;15.00;64.78;99916.50;5077874;28;45481;-57
2022/11/08 10:52:48;;;;;;;;;8.00;4.00;;;;;15.09;65.57;99919.50;5078023;28;45422;-60
2022/11/08 10:55:32;;;;;;;;;4.00;4.00;;;;;15.12;64.98;99916.66;5076915;28;45485;-60
2022/11/08 10:57:58;;;;;;;;;4.00;3.33;;;;;15.16;64.64;99919.03;5077363;28;45313;-61
2022/11/08 11:00:29;;;;;;;;;4.00;4.00;;;;;15.20;64.28;99914.34;5077785;28;45410;-61
2022/11/08 11:03:24;;;;;;;;;3.67;3.00;;;;;15.25;64.40;99904.31;5077248;28;45427;-59
2022/11/08 11:06:18;;;;;;;;;4.33;4.00;;;;;15.30;65.26;99904.88;5059477;28;45606;-60
2022/11/08 11:08:49;;;;;;;;;7.00;7.00;;;;;15.35;64.79;99888.66;5066963;28;45527;-59
2022/11/08 11:11:29;;;;;;;;;5.67;5.00;;;;;15.41;64.28;99894.41;5077407;28;45621;-58
2022/11/08 11:14:15;;;;;;;;;4.67;4.67;;;;;15.44;64.38;99909.25;5077491;28;45332;-58
2022/11/08 11:16:52;;;;;;;;;4.00;4.00;;;;;15.46;64.01;99902.88;5077656;28;45544;-58
2022/11/08 11:19:18;;;;;;;;;5.00;4.00;;;;;15.51;64.16;99896.44;5077120;28;45542;-59
2022/11/08 11:21:47;;;;;;;;;4.33;3.33;;;;;15.54;64.22;99904.19;5076891;28;45478;-55
2022/11/08 11:24:19;;;;;;;;;4.00;4.00;;;;;15.55;64.76;99903.22;5077135;28;45453;-57
2022/11/08 11:26:48;;;;;;;;;6.00;5.00;;;;;15.60;65.01;99895.81;5076993;28;45375;-55
2022/11/08 11:29:15;;;;;;;;;4.00;4.00;;;;;15.62;64.29;99886.81;5076739;28;46177;-58
2022/11/08 11:31:46;;;;;;;;;9.33;7.33;;;;;15.64;63.99;99895.50;5076888;28;45465;-57
2022/11/08 11:34:17;;;;;;;;;7.33;6.33;;;;;15.66;64.80;99890.09;5077155;28;45383;-57
2022/11/08 11:36:57;;;;;;;;;2.67;2.67;;;;;15.67;65.10;99900.59;5076896;28;45351;-55
2022/11/08 11:39:38;;;;;;;;;5.00;5.00;;;;;15.67;65.10;99903.25;5076490;28;46017;-58
2022/11/08 11:42:13;;;;;;;;;5.67;3.67;;;;;15.65;64.84;99901.66;5076273;28;45379;-58
2022/11/08 11:44:54;;;;;;;;;4.00;3.00;;;;;15.66;64.67;99913.94;5076984;28;45530;-56
2022/11/08 11:47:38;;;;;;;;;4.00;3.67;;;;;15.67;64.94;99903.25;5076979;28;45584;-57
2022/11/08 11:50:32;;;;;;;;;6.33;5.33;;;;;15.67;65.10;99900.59;5076571;28;46101;-58
2022/11/08 11:53:00;;;;;;;;;4.00;4.00;;;;;15.68;65.04;99897.03;5052463;28;45529;-54
2022/11/08 11:56:07;;;;;;;;;7.00;5.00;;;;;15.71;64.87;99900.44;5076602;28;45523;-56
2022/11/08 11:59:06;;;;;;;;;8.33;6.67;;;;;15.75;64.97;99892.16;5066107;28;45356;-57